sensor_id;sensor_type;location;lat;lon;timestamp;P1;durP1;ratioP1;P2;durP2;ratioP2
73266;SDS011;61495;53.400;7.608;2023-07-28T00:01:33;9.15;;;4.13;;
73266;SDS011;61495;53.400;7.608;2023-07-28T00:03:59;8.18;;;3.53;;
73266;SDS011;61495;53.400;7.608;2023-07-28T00:06:24;8.45;;;4.00;;
73266;SDS011;61495;53.400;7.608;2023-07-28T00:08:49;7.38;;;4.07;;
73266;SDS011;61495;53.400;7.608;2023-07-28T00:11:15;8.10;;;4.38;;
73266;SDS011;61495;53.400;7.608;2023-07-28T00:13:42;8.95;;;4.00;;
73266;SDS011;61495;53.400;7.608;2023-07-28T00:16:08;10.80;;;4.40;;
73266;SDS011;61495;53.400;7.608;2023-07-28T00:18:34;8.82;;;4.25;;
73266;SDS011;61495;53.400;7.608;2023-07-28T00:20:59;11.02;;;4.47;;
73266;SDS011;61495;53.400;7.608;2023-07-28T00:23:25;7.30;;;4.32;;
73266;SDS011;61495;53.400;7.608;2023-07-28T00:25:51;8.55;;;4.97;;
73266;SDS011;61495;53.400;7.608;2023-07-28T00:28:16;8.13;;;4.10;;
73266;SDS011;61495;53.400;7.608;2023-07-28T00:30:42;8.73;;;4.93;;
73266;SDS011;61495;53.400;7.608;2023-07-28T00:33:07;9.93;;;5.07;;
73266;SDS011;61495;53.400;7.608;2023-07-28T00:35:33;9.60;;;5.63;;
73266;SDS011;61495;53.400;7.608;2023-07-28T00:37:58;10.02;;;5.35;;
73266;SDS011;61495;53.400;7.608;2023-07-28T00:40:24;9.90;;;5.80;;
73266;SDS011;61495;53.400;7.608;2023-07-28T00:42:49;9.88;;;6.03;;
73266;SDS011;61495;53.400;7.608;2023-07-28T00:45:15;11.02;;;5.03;;
73266;SDS011;61495;53.400;7.608;2023-07-28T00:47:41;9.20;;;5.45;;
73266;SDS011;61495;53.400;7.608;2023-07-28T00:50:08;8.98;;;4.97;;
73266;SDS011;61495;53.400;7.608;2023-07-28T00:52:34;9.90;;;5.40;;
73266;SDS011;61495;53.400;7.608;2023-07-28T00:55:00;10.57;;;5.65;;
73266;SDS011;61495;53.400;7.608;2023-07-28T00:57:26;9.48;;;5.35;;
73266;SDS011;61495;53.400;7.608;2023-07-28T00:59:51;8.77;;;4.90;;
73266;SDS011;61495;53.400;7.608;2023-07-28T01:02:18;9.20;;;4.78;;
73266;SDS011;61495;53.400;7.608;2023-07-28T01:04:44;8.75;;;4.85;;
73266;SDS011;61495;53.400;7.608;2023-07-28T01:07:14;8.73;;;4.25;;
73266;SDS011;61495;53.400;7.608;2023-07-28T01:09:52;12.63;;;5.45;;
73266;SDS011;61495;53.400;7.608;2023-07-28T01:12:26;9.38;;;4.80;;
73266;SDS011;61495;53.400;7.608;2023-07-28T01:14:51;13.70;;;5.00;;
73266;SDS011;61495;53.400;7.608;2023-07-28T01:17:17;11.02;;;5.30;;
73266;SDS011;61495;53.400;7.608;2023-07-28T01:19:43;9.57;;;4.97;;
73266;SDS011;61495;53.400;7.608;2023-07-28T01:27:50;8.23;;;4.45;;
73266;SDS011;61495;53.400;7.608;2023-07-28T01:30:16;8.63;;;4.75;;
73266;SDS011;61495;53.400;7.608;2023-07-28T01:32:42;8.35;;;4.60;;
73266;SDS011;61495;53.400;7.608;2023-07-28T01:35:08;8.00;;;4.53;;
73266;SDS011;61495;53.400;7.608;2023-07-28T01:37:33;7.03;;;4.68;;
73266;SDS011;61495;53.400;7.608;2023-07-28T01:39:59;7.90;;;4.88;;
73266;SDS011;61495;53.400;7.608;2023-07-28T01:42:24;7.80;;;5.30;;
73266;SDS011;61495;53.400;7.608;2023-07-28T01:44:50;7.40;;;4.43;;
73266;SDS011;61495;53.400;7.608;2023-07-28T01:47:15;7.82;;;4.20;;
73266;SDS011;61495;53.400;7.608;2023-07-28T01:49:41;8.50;;;4.78;;
73266;SDS011;61495;53.400;7.608;2023-07-28T01:52:07;8.07;;;4.40;;
73266;SDS011;61495;53.400;7.608;2023-07-28T01:54:32;8.82;;;4.78;;
73266;SDS011;61495;53.400;7.608;2023-07-28T01:56:57;7.53;;;3.63;;
73266;SDS011;61495;53.400;7.608;2023-07-28T01:59:23;8.68;;;4.07;;
73266;SDS011;61495;53.400;7.608;2023-07-28T02:01:48;8.88;;;3.90;;
73266;SDS011;61495;53.400;7.608;2023-07-28T02:04:13;7.93;;;3.88;;
73266;SDS011;61495;53.400;7.608;2023-07-28T02:06:40;8.95;;;4.18;;
73266;SDS011;61495;53.400;7.608;2023-07-28T02:09:06;6.35;;;3.80;;
73266;SDS011;61495;53.400;7.608;2023-07-28T02:11:31;8.60;;;4.07;;
73266;SDS011;61495;53.400;7.608;2023-07-28T02:13:57;6.97;;;3.95;;
73266;SDS011;61495;53.400;7.608;2023-07-28T02:16:23;8.70;;;4.57;;
73266;SDS011;61495;53.400;7.608;2023-07-28T02:18:49;7.75;;;4.60;;
73266;SDS011;61495;53.400;7.608;2023-07-28T02:21:15;7.63;;;4.20;;
73266;SDS011;61495;53.400;7.608;2023-07-28T02:23:40;7.32;;;3.35;;
73266;SDS011;61495;53.400;7.608;2023-07-28T02:26:06;8.68;;;3.88;;
73266;SDS011;61495;53.400;7.608;2023-07-28T02:28:31;9.05;;;4.68;;
73266;SDS011;61495;53.400;7.608;2023-07-28T02:30:57;6.82;;;3.78;;
73266;SDS011;61495;53.400;7.608;2023-07-28T02:33:22;7.18;;;4.47;;
73266;SDS011;61495;53.400;7.608;2023-07-28T02:35:47;6.32;;;3.63;;
73266;SDS011;61495;53.400;7.608;2023-07-28T02:38:13;6.75;;;3.88;;
73266;SDS011;61495;53.400;7.608;2023-07-28T02:40:38;7.15;;;4.13;;
73266;SDS011;61495;53.400;7.608;2023-07-28T02:43:04;6.57;;;4.40;;
73266;SDS011;61495;53.400;7.608;2023-07-28T02:45:29;6.82;;;3.55;;
73266;SDS011;61495;53.400;7.608;2023-07-28T02:47:55;7.03;;;3.72;;
73266;SDS011;61495;53.400;7.608;2023-07-28T02:50:20;7.15;;;3.53;;
73266;SDS011;61495;53.400;7.608;2023-07-28T02:52:46;7.50;;;4.05;;
73266;SDS011;61495;53.400;7.608;2023-07-28T02:55:11;7.22;;;4.07;;
73266;SDS011;61495;53.400;7.608;2023-07-28T02:57:37;7.80;;;3.58;;
73266;SDS011;61495;53.400;7.608;2023-07-28T03:00:02;8.13;;;3.72;;
73266;SDS011;61495;53.400;7.608;2023-07-28T03:02:30;7.82;;;3.75;;
73266;SDS011;61495;53.400;7.608;2023-07-28T03:04:56;7.90;;;4.45;;
73266;SDS011;61495;53.400;7.608;2023-07-28T03:07:21;7.50;;;4.47;;
73266;SDS011;61495;53.400;7.608;2023-07-28T03:09:46;8.75;;;4.72;;
73266;SDS011;61495;53.400;7.608;2023-07-28T03:12:12;8.98;;;3.85;;
73266;SDS011;61495;53.400;7.608;2023-07-28T03:14:37;7.55;;;4.40;;
73266;SDS011;61495;53.400;7.608;2023-07-28T03:17:03;7.60;;;3.95;;
73266;SDS011;61495;53.400;7.608;2023-07-28T03:19:29;7.97;;;4.57;;
73266;SDS011;61495;53.400;7.608;2023-07-28T03:21:54;8.13;;;4.63;;
73266;SDS011;61495;53.400;7.608;2023-07-28T03:24:20;8.98;;;4.53;;
73266;SDS011;61495;53.400;7.608;2023-07-28T03:26:45;7.57;;;4.32;;
73266;SDS011;61495;53.400;7.608;2023-07-28T03:29:10;7.93;;;4.43;;
73266;SDS011;61495;53.400;7.608;2023-07-28T03:31:36;8.10;;;4.70;;
73266;SDS011;61495;53.400;7.608;2023-07-28T03:34:02;7.85;;;4.47;;
73266;SDS011;61495;53.400;7.608;2023-07-28T03:36:28;9.07;;;4.45;;
73266;SDS011;61495;53.400;7.608;2023-07-28T03:38:53;8.50;;;4.15;;
73266;SDS011;61495;53.400;7.608;2023-07-28T03:41:18;10.95;;;5.53;;
73266;SDS011;61495;53.400;7.608;2023-07-28T03:43:44;8.50;;;5.00;;
73266;SDS011;61495;53.400;7.608;2023-07-28T03:46:10;9.13;;;5.35;;
73266;SDS011;61495;53.400;7.608;2023-07-28T03:48:35;8.55;;;4.85;;
73266;SDS011;61495;53.400;7.608;2023-07-28T03:51:01;8.88;;;4.70;;
73266;SDS011;61495;53.400;7.608;2023-07-28T03:53:26;8.18;;;4.47;;
73266;SDS011;61495;53.400;7.608;2023-07-28T03:55:52;9.43;;;4.90;;
73266;SDS011;61495;53.400;7.608;2023-07-28T03:58:18;8.85;;;4.55;;
73266;SDS011;61495;53.400;7.608;2023-07-28T04:00:44;8.90;;;4.68;;
73266;SDS011;61495;53.400;7.608;2023-07-28T04:03:09;7.63;;;4.50;;
73266;SDS011;61495;53.400;7.608;2023-07-28T04:05:36;7.88;;;4.40;;
73266;SDS011;61495;53.400;7.608;2023-07-28T04:08:01;8.68;;;4.75;;
73266;SDS011;61495;53.400;7.608;2023-07-28T04:10:27;8.15;;;4.57;;
73266;SDS011;61495;53.400;7.608;2023-07-28T04:12:52;10.90;;;4.45;;
73266;SDS011;61495;53.400;7.608;2023-07-28T04:15:17;8.95;;;4.43;;
73266;SDS011;61495;53.400;7.608;2023-07-28T04:17:43;8.48;;;4.25;;
73266;SDS011;61495;53.400;7.608;2023-07-28T04:20:08;7.40;;;4.03;;
73266;SDS011;61495;53.400;7.608;2023-07-28T04:22:34;8.40;;;4.25;;
73266;SDS011;61495;53.400;7.608;2023-07-28T04:24:59;9.32;;;4.97;;
73266;SDS011;61495;53.400;7.608;2023-07-28T04:27:25;7.57;;;3.88;;
73266;SDS011;61495;53.400;7.608;2023-07-28T04:29:50;8.57;;;4.70;;
73266;SDS011;61495;53.400;7.608;2023-07-28T04:32:15;8.38;;;4.32;;
73266;SDS011;61495;53.400;7.608;2023-07-28T04:34:41;7.70;;;3.90;;
73266;SDS011;61495;53.400;7.608;2023-07-28T04:37:06;7.75;;;4.13;;
73266;SDS011;61495;53.400;7.608;2023-07-28T04:39:31;6.75;;;4.22;;
73266;SDS011;61495;53.400;7.608;2023-07-28T04:41:57;7.55;;;4.40;;
73266;SDS011;61495;53.400;7.608;2023-07-28T04:44:22;8.43;;;4.80;;
73266;SDS011;61495;53.400;7.608;2023-07-28T04:46:47;7.00;;;3.92;;
73266;SDS011;61495;53.400;7.608;2023-07-28T04:49:13;6.72;;;3.45;;
73266;SDS011;61495;53.400;7.608;2023-07-28T04:51:39;7.18;;;3.40;;
73266;SDS011;61495;53.400;7.608;2023-07-28T04:54:04;6.63;;;3.42;;
73266;SDS011;61495;53.400;7.608;2023-07-28T04:56:29;6.95;;;3.22;;
73266;SDS011;61495;53.400;7.608;2023-07-28T04:58:55;6.95;;;3.40;;
73266;SDS011;61495;53.400;7.608;2023-07-28T05:01:20;6.00;;;3.20;;
73266;SDS011;61495;53.400;7.608;2023-07-28T05:03:45;7.93;;;3.13;;
73266;SDS011;61495;53.400;7.608;2023-07-28T05:06:11;6.95;;;3.20;;
73266;SDS011;61495;53.400;7.608;2023-07-28T05:08:36;7.93;;;4.15;;
73266;SDS011;61495;53.400;7.608;2023-07-28T05:11:01;6.47;;;3.20;;
73266;SDS011;61495;53.400;7.608;2023-07-28T05:13:27;6.95;;;4.03;;
73266;SDS011;61495;53.400;7.608;2023-07-28T05:15:52;7.45;;;3.58;;
73266;SDS011;61495;53.400;7.608;2023-07-28T05:18:18;6.45;;;3.20;;
73266;SDS011;61495;53.400;7.608;2023-07-28T05:20:43;5.78;;;2.78;;
73266;SDS011;61495;53.400;7.608;2023-07-28T05:23:08;6.75;;;2.90;;
73266;SDS011;61495;53.400;7.608;2023-07-28T05:25:34;6.50;;;3.05;;
73266;SDS011;61495;53.400;7.608;2023-07-28T05:27:59;7.18;;;3.17;;
73266;SDS011;61495;53.400;7.608;2023-07-28T05:30:25;6.35;;;3.17;;
73266;SDS011;61495;53.400;7.608;2023-07-28T05:32:50;7.35;;;3.65;;
73266;SDS011;61495;53.400;7.608;2023-07-28T05:35:15;7.03;;;3.20;;
73266;SDS011;61495;53.400;7.608;2023-07-28T05:37:41;7.47;;;3.63;;
73266;SDS011;61495;53.400;7.608;2023-07-28T05:40:06;5.97;;;3.10;;
73266;SDS011;61495;53.400;7.608;2023-07-28T05:42:32;6.75;;;3.45;;
73266;SDS011;61495;53.400;7.608;2023-07-28T05:44:58;6.45;;;3.15;;
73266;SDS011;61495;53.400;7.608;2023-07-28T05:47:24;6.43;;;3.58;;
73266;SDS011;61495;53.400;7.608;2023-07-28T05:49:51;6.65;;;3.35;;
73266;SDS011;61495;53.400;7.608;2023-07-28T05:52:18;6.20;;;3.70;;
73266;SDS011;61495;53.400;7.608;2023-07-28T05:54:44;5.75;;;3.35;;
73266;SDS011;61495;53.400;7.608;2023-07-28T05:57:09;7.40;;;3.90;;
73266;SDS011;61495;53.400;7.608;2023-07-28T05:59:34;5.20;;;2.92;;
73266;SDS011;61495;53.400;7.608;2023-07-28T06:02:00;6.05;;;3.20;;
73266;SDS011;61495;53.400;7.608;2023-07-28T06:04:26;5.15;;;3.38;;
73266;SDS011;61495;53.400;7.608;2023-07-28T06:06:51;5.88;;;2.95;;
73266;SDS011;61495;53.400;7.608;2023-07-28T06:09:17;6.53;;;3.90;;
73266;SDS011;61495;53.400;7.608;2023-07-28T06:11:42;5.80;;;3.63;;
73266;SDS011;61495;53.400;7.608;2023-07-28T06:14:07;6.65;;;4.18;;
73266;SDS011;61495;53.400;7.608;2023-07-28T06:16:33;7.32;;;3.90;;
73266;SDS011;61495;53.400;7.608;2023-07-28T06:18:58;8.60;;;4.07;;
73266;SDS011;61495;53.400;7.608;2023-07-28T06:21:24;5.78;;;2.85;;
73266;SDS011;61495;53.400;7.608;2023-07-28T06:23:49;7.18;;;3.85;;
73266;SDS011;61495;53.400;7.608;2023-07-28T06:26:15;7.28;;;3.53;;
73266;SDS011;61495;53.400;7.608;2023-07-28T06:28:41;9.13;;;3.78;;
73266;SDS011;61495;53.400;7.608;2023-07-28T06:31:06;10.13;;;4.47;;
73266;SDS011;61495;53.400;7.608;2023-07-28T06:33:33;12.18;;;6.28;;
73266;SDS011;61495;53.400;7.608;2023-07-28T06:35:58;13.52;;;5.97;;
73266;SDS011;61495;53.400;7.608;2023-07-28T06:38:24;13.38;;;7.40;;
73266;SDS011;61495;53.400;7.608;2023-07-28T06:40:49;18.50;;;7.32;;
73266;SDS011;61495;53.400;7.608;2023-07-28T06:43:15;14.52;;;8.70;;
73266;SDS011;61495;53.400;7.608;2023-07-28T06:45:41;15.18;;;8.07;;
73266;SDS011;61495;53.400;7.608;2023-07-28T06:48:06;16.60;;;8.18;;
73266;SDS011;61495;53.400;7.608;2023-07-28T06:50:31;15.65;;;8.48;;
73266;SDS011;61495;53.400;7.608;2023-07-28T06:52:57;22.23;;;9.43;;
73266;SDS011;61495;53.400;7.608;2023-07-28T06:55:23;17.30;;;9.35;;
73266;SDS011;61495;53.400;7.608;2023-07-28T06:57:48;14.48;;;8.55;;
73266;SDS011;61495;53.400;7.608;2023-07-28T07:00:14;19.42;;;8.52;;
73266;SDS011;61495;53.400;7.608;2023-07-28T07:02:40;21.50;;;8.35;;
73266;SDS011;61495;53.400;7.608;2023-07-28T07:05:06;14.98;;;8.10;;
73266;SDS011;61495;53.400;7.608;2023-07-28T07:07:32;17.88;;;8.60;;
73266;SDS011;61495;53.400;7.608;2023-07-28T07:09:58;22.73;;;9.77;;
73266;SDS011;61495;53.400;7.608;2023-07-28T07:12:23;18.52;;;7.78;;
73266;SDS011;61495;53.400;7.608;2023-07-28T07:14:48;19.33;;;8.38;;
73266;SDS011;61495;53.400;7.608;2023-07-28T07:17:14;15.98;;;8.40;;
73266;SDS011;61495;53.400;7.608;2023-07-28T07:19:39;15.27;;;7.50;;
73266;SDS011;61495;53.400;7.608;2023-07-28T07:22:05;17.38;;;7.88;;
73266;SDS011;61495;53.400;7.608;2023-07-28T07:24:31;17.98;;;7.53;;
73266;SDS011;61495;53.400;7.608;2023-07-28T07:26:56;13.82;;;7.68;;
73266;SDS011;61495;53.400;7.608;2023-07-28T07:29:22;16.23;;;6.90;;
73266;SDS011;61495;53.400;7.608;2023-07-28T07:31:47;13.45;;;6.90;;
73266;SDS011;61495;53.400;7.608;2023-07-28T07:34:13;13.60;;;7.43;;
73266;SDS011;61495;53.400;7.608;2023-07-28T07:36:39;13.88;;;6.72;;
73266;SDS011;61495;53.400;7.608;2023-07-28T07:39:05;12.55;;;6.22;;
73266;SDS011;61495;53.400;7.608;2023-07-28T07:41:30;11.75;;;6.70;;
73266;SDS011;61495;53.400;7.608;2023-07-28T07:43:56;13.13;;;6.40;;
73266;SDS011;61495;53.400;7.608;2023-07-28T07:46:22;16.13;;;6.88;;
73266;SDS011;61495;53.400;7.608;2023-07-28T07:48:47;12.63;;;7.07;;
73266;SDS011;61495;53.400;7.608;2023-07-28T07:51:14;11.80;;;5.95;;
73266;SDS011;61495;53.400;7.608;2023-07-28T07:53:40;12.15;;;7.13;;
73266;SDS011;61495;53.400;7.608;2023-07-28T07:56:06;15.75;;;6.72;;
73266;SDS011;61495;53.400;7.608;2023-07-28T07:58:33;17.17;;;7.53;;
73266;SDS011;61495;53.400;7.608;2023-07-28T08:00:58;12.70;;;7.55;;
73266;SDS011;61495;53.400;7.608;2023-07-28T08:03:24;12.07;;;6.80;;
73266;SDS011;61495;53.400;7.608;2023-07-28T08:05:50;11.77;;;6.90;;
73266;SDS011;61495;53.400;7.608;2023-07-28T08:08:15;13.23;;;6.25;;
73266;SDS011;61495;53.400;7.608;2023-07-28T08:10:42;12.13;;;6.85;;
73266;SDS011;61495;53.400;7.608;2023-07-28T08:13:08;13.07;;;6.20;;
73266;SDS011;61495;53.400;7.608;2023-07-28T08:15:33;9.02;;;6.43;;
73266;SDS011;61495;53.400;7.608;2023-07-28T08:17:59;12.20;;;6.28;;
73266;SDS011;61495;53.400;7.608;2023-07-28T08:20:24;9.90;;;5.85;;
73266;SDS011;61495;53.400;7.608;2023-07-28T08:22:50;11.00;;;5.40;;
73266;SDS011;61495;53.400;7.608;2023-07-28T08:25:15;11.38;;;5.75;;
73266;SDS011;61495;53.400;7.608;2023-07-28T08:27:41;11.25;;;6.00;;
73266;SDS011;61495;53.400;7.608;2023-07-28T08:30:06;9.48;;;5.45;;
73266;SDS011;61495;53.400;7.608;2023-07-28T08:32:32;8.25;;;4.82;;
73266;SDS011;61495;53.400;7.608;2023-07-28T08:34:58;8.85;;;5.30;;
73266;SDS011;61495;53.400;7.608;2023-07-28T08:37:24;9.85;;;4.85;;
73266;SDS011;61495;53.400;7.608;2023-07-28T08:39:49;8.98;;;5.55;;
73266;SDS011;61495;53.400;7.608;2023-07-28T08:42:15;8.75;;;5.30;;
73266;SDS011;61495;53.400;7.608;2023-07-28T08:44:40;9.15;;;6.03;;
73266;SDS011;61495;53.400;7.608;2023-07-28T08:47:06;9.75;;;5.43;;
73266;SDS011;61495;53.400;7.608;2023-07-28T08:49:32;10.02;;;4.82;;
73266;SDS011;61495;53.400;7.608;2023-07-28T08:52:01;10.55;;;4.95;;
73266;SDS011;61495;53.400;7.608;2023-07-28T08:54:30;8.23;;;5.15;;
73266;SDS011;61495;53.400;7.608;2023-07-28T08:57:15;9.43;;;4.68;;
73266;SDS011;61495;53.400;7.608;2023-07-28T09:00:20;7.15;;;4.47;;
73266;SDS011;61495;53.400;7.608;2023-07-28T09:02:50;9.88;;;4.95;;
73266;SDS011;61495;53.400;7.608;2023-07-28T09:05:16;7.65;;;4.32;;
73266;SDS011;61495;53.400;7.608;2023-07-28T09:07:44;11.52;;;4.88;;
73266;SDS011;61495;53.400;7.608;2023-07-28T09:10:10;8.02;;;4.47;;
73266;SDS011;61495;53.400;7.608;2023-07-28T09:12:44;7.90;;;4.20;;
73266;SDS011;61495;53.400;7.608;2023-07-28T09:15:11;7.80;;;3.78;;
73266;SDS011;61495;53.400;7.608;2023-07-28T09:17:41;5.45;;;3.80;;
73266;SDS011;61495;53.400;7.608;2023-07-28T09:22:37;6.93;;;3.38;;
73266;SDS011;61495;53.400;7.608;2023-07-28T09:25:10;8.70;;;3.75;;
73266;SDS011;61495;53.400;7.608;2023-07-28T09:27:40;8.70;;;3.90;;
73266;SDS011;61495;53.400;7.608;2023-07-28T09:30:13;7.63;;;3.63;;
73266;SDS011;61495;53.400;7.608;2023-07-28T09:32:43;37.42;;;7.93;;
73266;SDS011;61495;53.400;7.608;2023-07-28T09:35:12;14.77;;;5.63;;
73266;SDS011;61495;53.400;7.608;2023-07-28T09:37:42;7.18;;;3.70;;
73266;SDS011;61495;53.400;7.608;2023-07-28T09:40:13;7.63;;;3.85;;
73266;SDS011;61495;53.400;7.608;2023-07-28T09:42:44;8.00;;;3.72;;
73266;SDS011;61495;53.400;7.608;2023-07-28T09:45:14;5.78;;;3.33;;
73266;SDS011;61495;53.400;7.608;2023-07-28T09:47:44;6.43;;;2.97;;
73266;SDS011;61495;53.400;7.608;2023-07-28T09:50:11;6.28;;;2.95;;
73266;SDS011;61495;53.400;7.608;2023-07-28T09:52:45;6.35;;;3.97;;
73266;SDS011;61495;53.400;7.608;2023-07-28T09:55:12;6.07;;;3.00;;
73266;SDS011;61495;53.400;7.608;2023-07-28T09:57:44;5.05;;;2.85;;
73266;SDS011;61495;53.400;7.608;2023-07-28T10:00:17;5.00;;;3.30;;
73266;SDS011;61495;53.400;7.608;2023-07-28T10:02:45;6.22;;;3.00;;
73266;SDS011;61495;53.400;7.608;2023-07-28T10:05:11;5.93;;;2.92;;
73266;SDS011;61495;53.400;7.608;2023-07-28T10:07:41;6.95;;;3.17;;
73266;SDS011;61495;53.400;7.608;2023-07-28T10:10:09;5.18;;;2.70;;
73266;SDS011;61495;53.400;7.608;2023-07-28T10:12:50;5.28;;;2.83;;
73266;SDS011;61495;53.400;7.608;2023-07-28T10:15:18;5.32;;;3.13;;
73266;SDS011;61495;53.400;7.608;2023-07-28T10:17:53;5.95;;;3.00;;
73266;SDS011;61495;53.400;7.608;2023-07-28T10:20:38;5.00;;;2.50;;
73266;SDS011;61495;53.400;7.608;2023-07-28T10:23:26;4.60;;;3.10;;
73266;SDS011;61495;53.400;7.608;2023-07-28T10:25:57;6.63;;;2.70;;
73266;SDS011;61495;53.400;7.608;2023-07-28T10:28:29;6.75;;;2.40;;
73266;SDS011;61495;53.400;7.608;2023-07-28T10:31:01;4.68;;;2.42;;
73266;SDS011;61495;53.400;7.608;2023-07-28T10:35:57;6.22;;;2.58;;
73266;SDS011;61495;53.400;7.608;2023-07-28T10:38:30;5.85;;;2.78;;
73266;SDS011;61495;53.400;7.608;2023-07-28T10:41:18;6.38;;;2.97;;
73266;SDS011;61495;53.400;7.608;2023-07-28T10:43:44;6.72;;;3.28;;
73266;SDS011;61495;53.400;7.608;2023-07-28T10:46:11;6.93;;;3.88;;
73266;SDS011;61495;53.400;7.608;2023-07-28T10:48:41;5.72;;;3.20;;
73266;SDS011;61495;53.400;7.608;2023-07-28T10:51:08;4.80;;;2.90;;
73266;SDS011;61495;53.400;7.608;2023-07-28T10:53:34;6.78;;;3.15;;
73266;SDS011;61495;53.400;7.608;2023-07-28T10:56:01;5.45;;;3.22;;
73266;SDS011;61495;53.400;7.608;2023-07-28T10:58:28;4.93;;;2.70;;
73266;SDS011;61495;53.400;7.608;2023-07-28T11:00:54;5.22;;;2.70;;
73266;SDS011;61495;53.400;7.608;2023-07-28T11:03:20;4.53;;;2.72;;
73266;SDS011;61495;53.400;7.608;2023-07-28T11:05:45;5.22;;;3.05;;
73266;SDS011;61495;53.400;7.608;2023-07-28T11:08:13;6.70;;;3.28;;
73266;SDS011;61495;53.400;7.608;2023-07-28T11:10:39;7.72;;;2.85;;
73266;SDS011;61495;53.400;7.608;2023-07-28T11:13:05;5.03;;;2.92;;
73266;SDS011;61495;53.400;7.608;2023-07-28T11:15:31;4.50;;;2.50;;
73266;SDS011;61495;53.400;7.608;2023-07-28T11:17:58;4.72;;;3.00;;
73266;SDS011;61495;53.400;7.608;2023-07-28T11:20:24;4.63;;;2.58;;
73266;SDS011;61495;53.400;7.608;2023-07-28T11:22:57;4.80;;;2.30;;
73266;SDS011;61495;53.400;7.608;2023-07-28T11:25:25;5.88;;;2.80;;
73266;SDS011;61495;53.400;7.608;2023-07-28T11:27:53;5.90;;;3.35;;
73266;SDS011;61495;53.400;7.608;2023-07-28T11:30:20;5.15;;;2.40;;
73266;SDS011;61495;53.400;7.608;2023-07-28T11:32:47;4.88;;;3.03;;
73266;SDS011;61495;53.400;7.608;2023-07-28T11:35:15;4.70;;;2.80;;
73266;SDS011;61495;53.400;7.608;2023-07-28T11:37:43;5.70;;;2.70;;
73266;SDS011;61495;53.400;7.608;2023-07-28T11:40:10;4.72;;;2.42;;
73266;SDS011;61495;53.400;7.608;2023-07-28T11:42:38;4.60;;;3.20;;
73266;SDS011;61495;53.400;7.608;2023-07-28T11:45:10;6.07;;;2.55;;
73266;SDS011;61495;53.400;7.608;2023-07-28T11:47:37;5.88;;;2.60;;
73266;SDS011;61495;53.400;7.608;2023-07-28T11:50:03;5.28;;;2.55;;
73266;SDS011;61495;53.400;7.608;2023-07-28T11:52:32;5.25;;;2.67;;
73266;SDS011;61495;53.400;7.608;2023-07-28T11:55:00;5.05;;;2.40;;
73266;SDS011;61495;53.400;7.608;2023-07-28T11:57:26;5.15;;;3.13;;
73266;SDS011;61495;53.400;7.608;2023-07-28T11:59:53;4.55;;;2.42;;
73266;SDS011;61495;53.400;7.608;2023-07-28T12:02:26;5.70;;;2.70;;
73266;SDS011;61495;53.400;7.608;2023-07-28T12:04:52;4.10;;;2.15;;
73266;SDS011;61495;53.400;7.608;2023-07-28T12:07:20;4.82;;;2.42;;
73266;SDS011;61495;53.400;7.608;2023-07-28T12:09:53;6.15;;;2.85;;
73266;SDS011;61495;53.400;7.608;2023-07-28T12:12:28;4.32;;;2.40;;
73266;SDS011;61495;53.400;7.608;2023-07-28T12:14:57;8.75;;;3.10;;
73266;SDS011;61495;53.400;7.608;2023-07-28T12:17:29;5.82;;;2.60;;
73266;SDS011;61495;53.400;7.608;2023-07-28T12:20:00;4.63;;;2.38;;
73266;SDS011;61495;53.400;7.608;2023-07-28T12:22:36;5.10;;;2.60;;
73266;SDS011;61495;53.400;7.608;2023-07-28T12:25:03;4.65;;;2.47;;
73266;SDS011;61495;53.400;7.608;2023-07-28T12:27:29;4.32;;;2.22;;
73266;SDS011;61495;53.400;7.608;2023-07-28T12:29:55;3.97;;;2.20;;
73266;SDS011;61495;53.400;7.608;2023-07-28T12:32:22;3.47;;;2.00;;
73266;SDS011;61495;53.400;7.608;2023-07-28T12:34:51;4.88;;;2.60;;
73266;SDS011;61495;53.400;7.608;2023-07-28T12:37:17;3.78;;;2.30;;
73266;SDS011;61495;53.400;7.608;2023-07-28T12:39:43;3.50;;;1.98;;
73266;SDS011;61495;53.400;7.608;2023-07-28T12:42:09;4.90;;;2.60;;
73266;SDS011;61495;53.400;7.608;2023-07-28T12:44:36;3.92;;;2.20;;
73266;SDS011;61495;53.400;7.608;2023-07-28T12:47:06;3.70;;;2.10;;
73266;SDS011;61495;53.400;7.608;2023-07-28T12:49:32;4.05;;;1.90;;
73266;SDS011;61495;53.400;7.608;2023-07-28T12:51:59;3.40;;;1.90;;
73266;SDS011;61495;53.400;7.608;2023-07-28T12:54:25;3.78;;;1.92;;
73266;SDS011;61495;53.400;7.608;2023-07-28T12:56:54;4.95;;;2.20;;
73266;SDS011;61495;53.400;7.608;2023-07-28T12:59:20;4.57;;;2.03;;
73266;SDS011;61495;53.400;7.608;2023-07-28T13:01:46;4.07;;;2.00;;
73266;SDS011;61495;53.400;7.608;2023-07-28T13:04:11;4.40;;;1.90;;
73266;SDS011;61495;53.400;7.608;2023-07-28T13:06:37;4.35;;;2.20;;
73266;SDS011;61495;53.400;7.608;2023-07-28T13:09:03;4.10;;;2.33;;
73266;SDS011;61495;53.400;7.608;2023-07-28T13:11:30;4.00;;;1.85;;
73266;SDS011;61495;53.400;7.608;2023-07-28T13:13:55;4.90;;;1.95;;
73266;SDS011;61495;53.400;7.608;2023-07-28T13:16:21;4.00;;;2.00;;
73266;SDS011;61495;53.400;7.608;2023-07-28T13:18:46;4.78;;;1.98;;
73266;SDS011;61495;53.400;7.608;2023-07-28T13:21:12;4.07;;;1.75;;
73266;SDS011;61495;53.400;7.608;2023-07-28T13:23:38;3.13;;;1.73;;
73266;SDS011;61495;53.400;7.608;2023-07-28T13:26:04;4.00;;;1.92;;
73266;SDS011;61495;53.400;7.608;2023-07-28T13:28:30;3.75;;;2.22;;
73266;SDS011;61495;53.400;7.608;2023-07-28T13:30:55;5.22;;;1.98;;
73266;SDS011;61495;53.400;7.608;2023-07-28T13:33:21;6.57;;;2.05;;
73266;SDS011;61495;53.400;7.608;2023-07-28T13:35:47;5.18;;;2.03;;
73266;SDS011;61495;53.400;7.608;2023-07-28T13:38:12;2.65;;;1.42;;
73266;SDS011;61495;53.400;7.608;2023-07-28T13:40:38;3.03;;;1.65;;
73266;SDS011;61495;53.400;7.608;2023-07-28T13:43:06;4.97;;;2.45;;
73266;SDS011;61495;53.400;7.608;2023-07-28T13:45:32;3.08;;;1.77;;
73266;SDS011;61495;53.400;7.608;2023-07-28T13:47:57;3.85;;;1.88;;
73266;SDS011;61495;53.400;7.608;2023-07-28T13:50:23;3.42;;;1.63;;
73266;SDS011;61495;53.400;7.608;2023-07-28T13:52:48;2.83;;;1.70;;
73266;SDS011;61495;53.400;7.608;2023-07-28T13:55:14;3.42;;;1.98;;
73266;SDS011;61495;53.400;7.608;2023-07-28T13:57:40;4.18;;;1.90;;
73266;SDS011;61495;53.400;7.608;2023-07-28T14:00:06;3.08;;;1.67;;
73266;SDS011;61495;53.400;7.608;2023-07-28T14:02:37;4.85;;;1.70;;
73266;SDS011;61495;53.400;7.608;2023-07-28T14:05:04;3.20;;;1.70;;
73266;SDS011;61495;53.400;7.608;2023-07-28T14:07:30;4.50;;;1.98;;
73266;SDS011;61495;53.400;7.608;2023-07-28T14:09:56;3.83;;;2.03;;
73266;SDS011;61495;53.400;7.608;2023-07-28T14:12:22;2.92;;;1.73;;
73266;SDS011;61495;53.400;7.608;2023-07-28T14:14:47;4.15;;;1.60;;
73266;SDS011;61495;53.400;7.608;2023-07-28T14:17:15;3.25;;;1.70;;
73266;SDS011;61495;53.400;7.608;2023-07-28T14:19:41;3.67;;;2.20;;
73266;SDS011;61495;53.400;7.608;2023-07-28T14:22:06;4.75;;;1.75;;
73266;SDS011;61495;53.400;7.608;2023-07-28T14:24:32;4.18;;;2.00;;
73266;SDS011;61495;53.400;7.608;2023-07-28T14:26:57;3.63;;;1.65;;
73266;SDS011;61495;53.400;7.608;2023-07-28T14:29:23;3.22;;;1.80;;
73266;SDS011;61495;53.400;7.608;2023-07-28T14:31:48;3.15;;;1.90;;
73266;SDS011;61495;53.400;7.608;2023-07-28T14:34:14;3.72;;;2.03;;
73266;SDS011;61495;53.400;7.608;2023-07-28T14:36:40;3.95;;;1.88;;
73266;SDS011;61495;53.400;7.608;2023-07-28T14:39:05;3.45;;;2.10;;
73266;SDS011;61495;53.400;7.608;2023-07-28T14:41:32;3.90;;;1.77;;
73266;SDS011;61495;53.400;7.608;2023-07-28T14:43:57;5.95;;;1.98;;
73266;SDS011;61495;53.400;7.608;2023-07-28T14:46:23;3.70;;;1.80;;
73266;SDS011;61495;53.400;7.608;2023-07-28T14:48:50;3.05;;;1.80;;
73266;SDS011;61495;53.400;7.608;2023-07-28T14:51:16;3.65;;;1.73;;
73266;SDS011;61495;53.400;7.608;2023-07-28T14:53:41;3.40;;;1.73;;